createdAt,value
2023-03-23T15:58:43.252Z,3.63
2023-03-23T16:01:17.376Z,2.80
2023-03-23T16:03:53.679Z,3.63
2023-03-23T16:06:25.143Z,3.70
2023-03-23T16:08:55.497Z,3.38
2023-03-23T16:11:26.393Z,3.15
2023-03-23T16:13:55.268Z,3.80
2023-03-23T16:16:33.830Z,3.58
2023-03-23T16:19:01.647Z,3.60
2023-03-23T16:21:29.166Z,3.80
2023-03-23T16:23:57.408Z,3.97
2023-03-23T16:26:25.556Z,4.18
2023-03-23T16:28:57.396Z,4.05
2023-03-23T16:33:58.068Z,3.72
2023-03-23T16:36:25.602Z,4.07
2023-03-23T16:38:54.793Z,3.63
2023-03-23T16:41:22.642Z,4.18
2023-03-23T16:43:50.358Z,4.18
2023-03-23T16:46:18.281Z,3.92
2023-03-23T16:48:45.808Z,4.28
2023-03-23T16:51:13.278Z,4.18
2023-03-23T16:53:40.988Z,4.38
2023-03-23T16:56:08.914Z,3.70
2023-03-23T16:58:36.578Z,3.95
2023-03-23T17:01:04.283Z,4.40
2023-03-23T17:03:31.936Z,3.95
2023-03-23T17:06:01.721Z,4.38
2023-03-23T17:08:29.572Z,3.55
2023-03-23T17:10:59.207Z,3.70
2023-03-23T17:13:28.447Z,3.85
2023-03-23T17:15:57.443Z,4.07
2023-03-23T17:18:25.567Z,4.38
2023-03-23T17:20:54.143Z,4.28
2023-03-23T17:23:22.210Z,4.22
2023-03-23T17:25:50.522Z,3.78
2023-03-23T17:28:19.685Z,4.40
2023-03-23T17:30:48.632Z,3.88
2023-03-23T17:33:16.307Z,4.15
2023-03-23T17:35:46.999Z,3.90
2023-03-23T17:38:15.009Z,4.13
2023-03-23T17:40:42.556Z,4.30
2023-03-23T17:43:10.269Z,3.80
2023-03-23T17:45:37.955Z,4.18
2023-03-23T17:48:08.158Z,4.45
2023-03-23T17:50:36.642Z,4.50
2023-03-23T17:53:04.860Z,4.68
2023-03-23T17:55:32.578Z,4.18
2023-03-23T17:58:00.352Z,4.95
2023-03-23T18:00:27.909Z,5.03
2023-03-23T18:02:56.589Z,4.65
2023-03-23T18:05:24.737Z,5.25
2023-03-23T18:07:52.349Z,4.65
2023-03-23T18:10:20.567Z,5.03
2023-03-23T18:12:50.896Z,4.55
2023-03-23T18:15:18.495Z,4.78
2023-03-23T18:17:48.380Z,4.72
2023-03-23T18:20:18.407Z,4.85
2023-03-23T18:22:45.970Z,4.70
2023-03-23T18:25:13.982Z,4.40
2023-03-23T18:27:41.885Z,4.25
2023-03-23T18:30:10.740Z,4.88
2023-03-23T18:32:40.129Z,5.50
2023-03-23T18:35:10.865Z,4.82
2023-03-23T18:37:43.077Z,5.00
2023-03-23T18:40:11.542Z,5.20
2023-03-23T18:42:41.633Z,4.43
2023-03-23T18:45:09.725Z,4.25
2023-03-23T18:47:38.742Z,4.65
2023-03-23T18:50:11.126Z,4.50
2023-03-23T18:52:40.561Z,4.45
2023-03-23T18:55:09.387Z,4.65
2023-03-23T18:57:40.295Z,4.55
2023-03-23T19:00:08.895Z,4.05
2023-03-23T19:02:39.566Z,4.70
2023-03-23T19:05:09.321Z,4.40
2023-03-23T19:07:38.416Z,5.07
2023-03-23T19:10:06.389Z,4.68
2023-03-23T19:12:33.821Z,4.85
2023-03-23T19:15:01.430Z,4.38
2023-03-23T19:17:30.497Z,4.20
2023-03-23T19:19:58.328Z,4.40
2023-03-23T19:22:25.996Z,4.93
2023-03-23T19:24:53.563Z,4.18
2023-03-23T19:27:21.435Z,4.80
2023-03-23T19:29:49.482Z,4.32
2023-03-23T19:32:17.208Z,3.90
2023-03-23T19:34:49.311Z,4.50
2023-03-23T19:37:18.841Z,3.88
2023-03-23T19:39:46.358Z,4.10
2023-03-23T19:42:16.937Z,4.40
2023-03-23T19:44:44.844Z,3.60
2023-03-23T19:47:12.980Z,4.60
2023-03-23T19:49:40.992Z,4.18
2023-03-23T19:52:12.530Z,3.92
2023-03-23T19:54:41.659Z,3.92
2023-03-23T19:57:10.606Z,4.40
2023-03-23T19:59:39.048Z,4.43
2023-03-23T20:02:07.180Z,4.20
2023-03-23T20:04:35.441Z,4.10
2023-03-23T20:07:05.923Z,4.05
2023-03-23T20:09:35.319Z,3.50
2023-03-23T20:12:04.819Z,3.78
2023-03-23T20:14:33.389Z,3.83
2023-03-23T20:17:01.750Z,3.80
2023-03-23T20:19:29.238Z,4.70
2023-03-23T20:21:56.704Z,4.32
2023-03-23T20:24:24.219Z,3.55
2023-03-23T20:26:51.778Z,3.45
2023-03-23T20:29:19.267Z,3.95
2023-03-23T20:31:46.896Z,3.83
2023-03-23T20:34:30.606Z,4.10
2023-03-23T20:36:59.917Z,4.40
2023-03-23T20:39:30.984Z,4.10
2023-03-23T20:42:03.459Z,4.32
2023-03-23T20:44:34.882Z,4.22
2023-03-23T20:47:03.956Z,5.30
2023-03-23T20:49:32.089Z,5.20
2023-03-23T20:51:59.999Z,4.78
2023-03-23T20:54:28.064Z,4.43
2023-03-23T20:56:57.762Z,4.55
2023-03-23T20:59:25.828Z,4.40
2023-03-23T21:01:53.997Z,4.15
2023-03-23T21:04:27.340Z,4.78
2023-03-23T21:06:55.985Z,4.75
2023-03-23T21:09:25.417Z,4.95
2023-03-23T21:11:53.834Z,4.80
2023-03-23T21:14:21.591Z,5.15
2023-03-23T21:16:50.672Z,4.72
2023-03-23T21:19:19.913Z,5.15
2023-03-23T21:21:55.805Z,4.90
2023-03-23T21:24:28.499Z,4.53
2023-03-23T21:26:58.914Z,5.35
2023-03-23T21:29:28.068Z,5.43
2023-03-23T21:34:27.919Z,5.38
2023-03-23T21:36:55.574Z,4.80
2023-03-23T21:39:23.696Z,5.72
2023-03-23T21:41:51.152Z,5.65
2023-03-23T21:44:18.836Z,5.18
2023-03-23T21:46:46.382Z,6.22
2023-03-23T21:49:14.501Z,5.53
2023-03-23T21:51:43.142Z,5.00
2023-03-23T21:54:11.803Z,5.72
2023-03-23T21:56:40.303Z,5.72
2023-03-23T21:59:07.952Z,5.80
2023-03-23T22:01:37.851Z,6.05
2023-03-23T22:04:09.039Z,6.05
2023-03-23T22:06:37.319Z,6.27
2023-03-23T22:09:05.554Z,5.50
2023-03-23T22:11:34.116Z,6.45
2023-03-23T22:14:01.961Z,5.72
2023-03-23T22:16:29.980Z,6.80
2023-03-23T22:19:00.213Z,6.32
2023-03-23T22:21:28.935Z,6.88
2023-03-23T22:23:58.413Z,6.45
2023-03-23T22:26:27.835Z,6.43
2023-03-23T22:28:56.359Z,6.82
2023-03-23T22:31:27.761Z,6.63
2023-03-23T22:33:56.987Z,6.57
2023-03-23T22:36:26.362Z,6.90
2023-03-23T22:38:55.708Z,7.18
2023-03-23T22:41:29.195Z,7.20
2023-03-23T22:43:56.770Z,7.38
2023-03-23T22:46:25.297Z,7.37
2023-03-23T22:48:53.332Z,7.18
2023-03-23T22:51:21.630Z,7.85
2023-03-23T22:53:50.012Z,7.40
2023-03-23T22:56:19.063Z,7.27
2023-03-23T22:58:46.830Z,7.40
2023-03-23T23:01:21.925Z,7.88
2023-03-23T23:03:50.138Z,7.37
2023-03-23T23:06:18.975Z,7.22
2023-03-23T23:08:47.417Z,7.28
2023-03-23T23:11:17.483Z,6.67
2023-03-23T23:13:45.831Z,8.80
2023-03-23T23:16:17.375Z,7.30
2023-03-23T23:18:47.627Z,8.20
2023-03-23T23:21:18.324Z,7.82
2023-03-23T23:23:46.648Z,8.03
2023-03-23T23:26:16.167Z,7.65
2023-03-23T23:28:44.614Z,8.03
2023-03-23T23:31:29.949Z,7.50
2023-03-23T23:33:59.613Z,8.23
2023-03-23T23:36:30.453Z,7.50
2023-03-23T23:39:00.339Z,8.07
2023-03-23T23:41:30.907Z,7.78
2023-03-23T23:43:59.601Z,7.47
2023-03-23T23:46:28.888Z,7.85
2023-03-23T23:48:57.593Z,8.63
2023-03-23T23:51:27.580Z,8.18
2023-03-23T23:53:59.190Z,8.10
2023-03-23T23:56:27.320Z,8.10
2023-03-23T23:58:54.964Z,7.80
